Terminal Aerodrome Forecast
Issued by NWS

Home | Current Version | Previous Version | Text Only | Print | Product List | Glossary On
Versions: 1 2 3 4 5 6 7 8 9 10 11 12 13 14 15 16 17 18 19 20 21 22 23 24
000
FTUS43 KMQT 230700 AAA
TAFSAW
TAF AMD
KSAW 230721Z 2307/2406 08005KT 6SM -RA OVC025
      TEMPO 2307/2309 5SM RA OVC015
     FM230900 06004KT 3SM BR OVC006
     FM231500 11006KT P6SM OVC015
     FM231900 09008KT P6SM OVC025
     FM240300 12006KT 5SM BR OVC020
      AMD LTD TO CLD VIS AND WIND TIL 231000=

USA.gov is the U.S. government's official web portal to all federal, state and local government web resources and services.